Salten — LMFM — position and weather

sailwx.info

Track history (hours):
 
Tides and Currents Weather Stations Pressure Air Temp Water Temp Dewpoint Dewpoint Depression Visibility Wind Speed Wind Dir Waves Ship Positions

Salten

Last reported at 2014-Sep-16 06:33 UTC. Time now 2014-Sep-16 09:29 UTC.
Position N 66°31' E 012°59'.

Length 41 m; draft 1.5 m.

Type: High speed craft. MMSI: 259387000.

Date/timePositionNaut miles runAvg speedWind from/ knotsBaromVisibWave heightAir tempDewpointWater temp
2014-Sep-16 06:33N 66°31' E 012°59'10 0.9
2014-Sep-15 18:30N 66°21' E 012°59'2812.5
2014-Sep-15 16:14N 66°48' E 013°14'2515.0
2014-Sep-15 14:32N 67°07' E 013°59'1414.0
2014-Sep-15 13:33N 67°17' E 014°22'0 0.0
2014-Sep-15 12:33N 67°17' E 014°22'0 0.0
2014-Sep-15 11:33N 67°17' E 014°22'0 0.0
2014-Sep-15 10:33N 67°17' E 014°22'5613.9
2014-Sep-15 06:29N 66°31' E 013°00'14 0.9
2014-Sep-14 15:18N 66°17' E 012°54'1416.9
2014-Sep-14 14:28N 66°31' E 013°00'4514.9
2014-Sep-14 11:26N 67°09' E 014°01'1213.1
2014-Sep-14 10:33N 67°17' E 014°22'0 0.0
2014-Sep-14 09:33N 67°17' E 014°22'0 0.0
2014-Sep-14 08:33N 67°17' E 014°22'0 0.0
2014-Sep-14 07:33N 67°17' E 014°22'0 0.0
2014-Sep-14 06:33N 67°17' E 014°22'0 0.0
2014-Sep-14 05:33N 67°17' E 014°22'0 0.0
2014-Sep-14 04:33N 67°17' E 014°22'0 0.0
2014-Sep-14 03:33N 67°17' E 014°22'0 0.0
2014-Sep-14 02:33N 67°17' E 014°22'0 0.0
2014-Sep-14 01:33N 67°17' E 014°22'0 0.0
2014-Sep-13 21:33N 67°17' E 014°22'0 0.0
2014-Sep-13 20:32N 67°17' E 014°22'0 0.0
2014-Sep-13 19:33N 67°17' E 014°22'0 0.0
2014-Sep-13 18:33N 67°17' E 014°22'0 0.0
2014-Sep-13 17:33N 67°17' E 014°22'0 0.0
2014-Sep-13 16:33N 67°17' E 014°22'0 0.0
2014-Sep-13 15:33N 67°17' E 014°22'0 0.0
2014-Sep-13 14:33N 67°17' E 014°22'0 0.0
2014-Sep-13 13:33N 67°17' E 014°22'0 0.0
2014-Sep-13 12:33N 67°17' E 014°22'0 0.0
2014-Sep-13 11:33N 67°17' E 014°22'0 0.0
2014-Sep-13 10:33N 67°17' E 014°22'0 0.0
2014-Sep-13 09:33N 67°17' E 014°22'0 0.0
2014-Sep-13 08:33N 67°17' E 014°22'8 8.4
2014-Sep-13 07:33N 67°25' E 014°31'5 0.3
2014-Sep-12 16:33N 67°29' E 014°37'1111.2
2014-Sep-12 15:33N 67°19' E 014°24'2 1.1
2014-Sep-12 13:33N 67°21' E 014°27'4 4.4
2014-Sep-12 12:33N 67°17' E 014°23'0 0.2
2014-Sep-12 11:33N 67°17' E 014°22'0 0.0
2014-Sep-12 10:33N 67°17' E 014°22'0 0.0
2014-Sep-12 09:33N 67°17' E 014°22'0 0.0
2014-Sep-12 08:33N 67°17' E 014°22'7 0.4
2014-Sep-11 15:33N 67°24' E 014°26'7 7.0
2014-Sep-11 14:33N 67°17' E 014°22'0 0.0
2014-Sep-11 13:33N 67°17' E 014°22'0 0.0
2014-Sep-11 12:33N 67°17' E 014°22'0 0.0
2014-Sep-11 11:33N 67°17' E 014°22'0 0.4
2014-Sep-11 10:33N 67°17' E 014°23'5814.2
2014-Sep-11 06:29N 66°30' E 012°59'6 0.5
2014-Sep-10 18:33N 66°25' E 012°50'5315.8
2014-Sep-10 15:11N 67°10' E 014°03'1116.8
2014-Sep-10 14:33N 67°17' E 014°22'0 0.0
2014-Sep-10 13:33N 67°17' E 014°22'0 0.0
2014-Sep-10 12:33N 67°17' E 014°22'0 0.0
2014-Sep-10 11:33N 67°17' E 014°22'0 0.0
2014-Sep-10 10:33N 67°17' E 014°22'0 0.0
2014-Sep-10 09:33N 67°17' E 014°22'0 0.0
2014-Sep-10 08:33N 67°17' E 014°22'3 0.2
2014-Sep-09 15:33N 67°20' E 014°25'3 2.9
2014-Sep-09 14:33N 67°17' E 014°22'0 0.0
2014-Sep-09 13:33N 67°17' E 014°22'0 0.0
2014-Sep-09 12:33N 67°17' E 014°22'0 0.0
2014-Sep-09 11:33N 67°17' E 014°22'0 0.0
2014-Sep-09 10:33N 67°17' E 014°22'0 0.0
2014-Sep-09 09:33N 67°17' E 014°22'0 0.0
2014-Sep-09 08:33N 67°17' E 014°22'7 0.4
2014-Sep-08 15:33N 67°23' E 014°30'7 7.1
2014-Sep-08 14:33N 67°17' E 014°22'0 0.0
2014-Sep-08 13:33N 67°17' E 014°22'0 0.0
2014-Sep-08 12:33N 67°17' E 014°22'0 0.0
2014-Sep-08 11:33N 67°17' E 014°22'0 0.0
2014-Sep-08 10:33N 67°17' E 014°22'0 0.0
2014-Sep-08 09:33N 67°17' E 014°22'0 0.0
2014-Sep-08 08:33N 67°17' E 014°22'20 1.5
2014-Sep-07 19:13N 67°36' E 014°42'2030.0
2014-Sep-07 18:33N 67°17' E 014°22'0 0.2
2014-Sep-07 17:33N 67°17' E 014°22'13 2.1
2014-Sep-07 11:29N 67°30' E 014°25'1313.7
2014-Sep-07 10:33N 67°17' E 014°22'7 0.4
2014-Sep-06 15:33N 67°24' E 014°30'7 7.4
2014-Sep-06 14:33N 67°17' E 014°22'0 0.0
2014-Sep-06 13:33N 67°17' E 014°22'0 0.0
2014-Sep-06 12:34N 67°17' E 014°22'0 0.0
2014-Sep-06 11:33N 67°17' E 014°22'0 0.0
2014-Sep-06 10:33N 67°17' E 014°22'1212.3
2014-Sep-06 09:33N 67°07' E 014°03'  
Track history (hours):
 
Tides and Currents Weather Stations Pressure Air Temp Water Temp Dewpoint Dewpoint Depression Visibility Wind Speed Wind Dir Waves Ship Positions

Salten

Last reported at 2014-Sep-16 06:33 UTC. Time now 2014-Sep-16 09:29 UTC.
Position N 66°31' E 012°59'.

Length 41 m; draft 1.5 m.

Type: High speed craft. MMSI: 259387000.

Date/timePositionNaut miles runAvg speedWind from/ knotsBaromVisibWave heightAir tempDewpointWater temp
2014-Sep-16 06:33N 66°31' E 012°59'10 0.9
2014-Sep-15 18:30N 66°21' E 012°59'2812.5
2014-Sep-15 16:14N 66°48' E 013°14'2515.0
2014-Sep-15 14:32N 67°07' E 013°59'1414.0
2014-Sep-15 13:33N 67°17' E 014°22'0 0.0
2014-Sep-15 12:33N 67°17' E 014°22'0 0.0
2014-Sep-15 11:33N 67°17' E 014°22'0 0.0
2014-Sep-15 10:33N 67°17' E 014°22'5613.9
2014-Sep-15 06:29N 66°31' E 013°00'14 0.9
2014-Sep-14 15:18N 66°17' E 012°54'1416.9
2014-Sep-14 14:28N 66°31' E 013°00'4514.9
2014-Sep-14 11:26N 67°09' E 014°01'1213.1
2014-Sep-14 10:33N 67°17' E 014°22'0 0.0
2014-Sep-14 09:33N 67°17' E 014°22'0 0.0
2014-Sep-14 08:33N 67°17' E 014°22'0 0.0
2014-Sep-14 07:33N 67°17' E 014°22'0 0.0
2014-Sep-14 06:33N 67°17' E 014°22'0 0.0
2014-Sep-14 05:33N 67°17' E 014°22'0 0.0
2014-Sep-14 04:33N 67°17' E 014°22'0 0.0
2014-Sep-14 03:33N 67°17' E 014°22'0 0.0
2014-Sep-14 02:33N 67°17' E 014°22'0 0.0
2014-Sep-14 01:33N 67°17' E 014°22'0 0.0
2014-Sep-13 21:33N 67°17' E 014°22'0 0.0
2014-Sep-13 20:32N 67°17' E 014°22'0 0.0
2014-Sep-13 19:33N 67°17' E 014°22'0 0.0
2014-Sep-13 18:33N 67°17' E 014°22'0 0.0
2014-Sep-13 17:33N 67°17' E 014°22'0 0.0
2014-Sep-13 16:33N 67°17' E 014°22'0 0.0
2014-Sep-13 15:33N 67°17' E 014°22'0 0.0
2014-Sep-13 14:33N 67°17' E 014°22'0 0.0
2014-Sep-13 13:33N 67°17' E 014°22'0 0.0
2014-Sep-13 12:33N 67°17' E 014°22'0 0.0
2014-Sep-13 11:33N 67°17' E 014°22'0 0.0
2014-Sep-13 10:33N 67°17' E 014°22'0 0.0
2014-Sep-13 09:33N 67°17' E 014°22'0 0.0
2014-Sep-13 08:33N 67°17' E 014°22'8 8.4
2014-Sep-13 07:33N 67°25' E 014°31'5 0.3
2014-Sep-12 16:33N 67°29' E 014°37'1111.2
2014-Sep-12 15:33N 67°19' E 014°24'2 1.1
2014-Sep-12 13:33N 67°21' E 014°27'4 4.4
2014-Sep-12 12:33N 67°17' E 014°23'0 0.2
2014-Sep-12 11:33N 67°17' E 014°22'0 0.0
2014-Sep-12 10:33N 67°17' E 014°22'0 0.0
2014-Sep-12 09:33N 67°17' E 014°22'0 0.0
2014-Sep-12 08:33N 67°17' E 014°22'7 0.4
2014-Sep-11 15:33N 67°24' E 014°26'7 7.0
2014-Sep-11 14:33N 67°17' E 014°22'0 0.0
2014-Sep-11 13:33N 67°17' E 014°22'0 0.0
2014-Sep-11 12:33N 67°17' E 014°22'0 0.0
2014-Sep-11 11:33N 67°17' E 014°22'0 0.4
2014-Sep-11 10:33N 67°17' E 014°23'5814.2
2014-Sep-11 06:29N 66°30' E 012°59'6 0.5
2014-Sep-10 18:33N 66°25' E 012°50'5315.8
2014-Sep-10 15:11N 67°10' E 014°03'1116.8
2014-Sep-10 14:33N 67°17' E 014°22'0 0.0
2014-Sep-10 13:33N 67°17' E 014°22'0 0.0
2014-Sep-10 12:33N 67°17' E 014°22'0 0.0
2014-Sep-10 11:33N 67°17' E 014°22'0 0.0
2014-Sep-10 10:33N 67°17' E 014°22'0 0.0
2014-Sep-10 09:33N 67°17' E 014°22'0 0.0
2014-Sep-10 08:33N 67°17' E 014°22'3 0.2
2014-Sep-09 15:33N 67°20' E 014°25'3 2.9
2014-Sep-09 14:33N 67°17' E 014°22'0 0.0
2014-Sep-09 13:33N 67°17' E 014°22'0 0.0
2014-Sep-09 12:33N 67°17' E 014°22'0 0.0
2014-Sep-09 11:33N 67°17' E 014°22'0 0.0
2014-Sep-09 10:33N 67°17' E 014°22'0 0.0
2014-Sep-09 09:33N 67°17' E 014°22'0 0.0
2014-Sep-09 08:33N 67°17' E 014°22'7 0.4
2014-Sep-08 15:33N 67°23' E 014°30'7 7.1
2014-Sep-08 14:33N 67°17' E 014°22'0 0.0
2014-Sep-08 13:33N 67°17' E 014°22'0 0.0
2014-Sep-08 12:33N 67°17' E 014°22'0 0.0
2014-Sep-08 11:33N 67°17' E 014°22'0 0.0
2014-Sep-08 10:33N 67°17' E 014°22'0 0.0
2014-Sep-08 09:33N 67°17' E 014°22'0 0.0
2014-Sep-08 08:33N 67°17' E 014°22'20 1.5
2014-Sep-07 19:13N 67°36' E 014°42'2030.0
2014-Sep-07 18:33N 67°17' E 014°22'0 0.2
2014-Sep-07 17:33N 67°17' E 014°22'13 2.1
2014-Sep-07 11:29N 67°30' E 014°25'1313.7
2014-Sep-07 10:33N 67°17' E 014°22'7 0.4
2014-Sep-06 15:33N 67°24' E 014°30'7 7.4
2014-Sep-06 14:33N 67°17' E 014°22'0 0.0
2014-Sep-06 13:33N 67°17' E 014°22'0 0.0
2014-Sep-06 12:34N 67°17' E 014°22'0 0.0
2014-Sep-06 11:33N 67°17' E 014°22'0 0.0
2014-Sep-06 10:33N 67°17' E 014°22'1212.3
2014-Sep-06 09:33N 67°07' E 014°03'  

Dump ship's entire track history